createdAt,value
2022-12-24T08:30:31.007Z,12.50
2022-12-24T08:32:58.156Z,11.60
2022-12-24T08:35:34.237Z,10.70
2022-12-24T08:38:01.347Z,11.50
2022-12-24T08:40:28.552Z,10.10
2022-12-24T08:42:55.726Z,11.10
2022-12-24T08:45:22.986Z,11.30
2022-12-24T08:47:50.208Z,10.40
2022-12-24T08:50:17.477Z,11.20
2022-12-24T08:52:44.577Z,10.30
2022-12-24T08:55:11.780Z,9.70
2022-12-24T08:57:38.968Z,9.90
2022-12-24T09:00:07.502Z,14.80
2022-12-24T09:02:34.855Z,8.60
2022-12-24T09:05:02.364Z,13.50
2022-12-24T09:07:29.474Z,10.20
2022-12-24T09:09:56.675Z,8.90
2022-12-24T09:12:23.818Z,12.30
2022-12-24T09:14:52.106Z,9.10
2022-12-24T09:17:19.214Z,9.60
2022-12-24T09:19:46.787Z,11.30
2022-12-24T09:22:14.453Z,9.90
2022-12-24T09:24:41.604Z,8.00
2022-12-24T09:27:08.764Z,10.30
2022-12-24T09:29:37.019Z,8.30
2022-12-24T09:32:04.912Z,8.40
2022-12-24T09:34:32.125Z,8.40
2022-12-24T09:37:00.940Z,7.40
2022-12-24T09:39:28.120Z,7.80
2022-12-24T09:41:55.314Z,7.30
2022-12-24T09:44:35.562Z,6.80
2022-12-24T09:47:24.667Z,7.30
2022-12-24T09:53:38.044Z,6.70
2022-12-24T09:56:12.185Z,6.10
2022-12-24T09:58:42.231Z,7.50
2022-12-24T10:01:16.859Z,8.80
2022-12-24T10:03:44.311Z,7.40
2022-12-24T10:06:15.296Z,7.20
2022-12-24T10:09:16.559Z,6.10
2022-12-24T10:12:03.065Z,6.90
2022-12-24T10:14:44.246Z,7.80
2022-12-24T10:17:27.575Z,6.80
2022-12-24T10:20:19.307Z,7.30
2022-12-24T10:22:58.942Z,6.40
2022-12-24T10:25:30.803Z,7.00
2022-12-24T10:27:59.032Z,6.80
2022-12-24T10:30:26.325Z,7.50
2022-12-24T10:32:54.110Z,6.70
2022-12-24T10:35:27.173Z,6.30
2022-12-24T10:37:54.440Z,6.60
2022-12-24T10:40:29.695Z,7.10
2022-12-24T10:42:56.903Z,6.70
2022-12-24T10:45:30.275Z,8.00
2022-12-24T10:48:54.311Z,7.20
2022-12-24T10:51:53.199Z,7.10
2022-12-24T10:54:27.829Z,5.60
2022-12-24T10:57:00.362Z,6.80
2022-12-24T10:59:40.858Z,5.10
2022-12-24T11:02:37.759Z,7.20
2022-12-24T11:05:29.112Z,9.70
2022-12-24T11:08:12.206Z,6.70
2022-12-24T11:10:44.674Z,6.50
2022-12-24T11:13:41.733Z,8.50
2022-12-24T11:16:34.006Z,14.20
2022-12-24T11:19:16.422Z,10.10
2022-12-24T11:21:43.577Z,8.10
2022-12-24T11:24:13.808Z,11.40
2022-12-24T11:26:42.452Z,10.50
2022-12-24T11:29:17.035Z,10.90
2022-12-24T11:31:44.557Z,8.10
2022-12-24T11:34:25.675Z,10.60
2022-12-24T11:36:53.920Z,11.20
2022-12-24T11:39:22.826Z,9.40
2022-12-24T11:41:51.368Z,8.80
2022-12-24T11:44:27.854Z,9.30
2022-12-24T11:46:58.632Z,9.80
2022-12-24T11:49:29.366Z,10.00
2022-12-24T11:52:12.304Z,9.70
2022-12-24T11:54:56.654Z,8.60
2022-12-24T11:59:52.674Z,9.20
2022-12-24T12:02:32.596Z,9.10
2022-12-24T12:05:03.464Z,9.80
2022-12-24T12:07:31.743Z,12.00
2022-12-24T12:10:08.821Z,11.00
2022-12-24T12:12:41.565Z,12.60
2022-12-24T12:15:14.026Z,14.20
2022-12-24T12:17:45.182Z,15.20
2022-12-24T12:20:23.196Z,16.70
2022-12-24T12:22:58.664Z,14.50
2022-12-24T12:25:47.385Z,11.20
2022-12-24T12:28:36.861Z,11.60
2022-12-24T12:31:21.071Z,10.00
2022-12-24T12:33:50.491Z,10.90
2022-12-24T12:36:19.711Z,12.00
2022-12-24T12:38:46.865Z,10.70
2022-12-24T12:41:52.209Z,9.20
2022-12-24T12:44:58.680Z,10.10
2022-12-24T12:48:01.331Z,10.30
2022-12-24T12:50:34.252Z,10.40
2022-12-24T12:53:13.281Z,11.80
2022-12-24T12:55:56.716Z,11.80
2022-12-24T12:58:54.685Z,10.40
2022-12-24T13:01:43.927Z,11.20
2022-12-24T13:04:49.309Z,10.80
2022-12-24T13:07:19.623Z,10.00
2022-12-24T13:09:56.196Z,12.60
2022-12-24T13:12:47.714Z,8.90
2022-12-24T13:15:14.867Z,11.20
2022-12-24T13:18:00.764Z,9.00
2022-12-24T13:20:34.048Z,9.70
2022-12-24T13:23:03.209Z,10.30
2022-12-24T13:25:37.850Z,9.00
2022-12-24T13:28:39.024Z,9.50
2022-12-24T13:31:11.916Z,8.80
2022-12-24T13:33:39.166Z,9.40
2022-12-24T13:36:09.481Z,10.00
2022-12-24T13:38:43.693Z,8.70
2022-12-24T13:41:39.415Z,10.10
2022-12-24T13:44:11.278Z,7.60
2022-12-24T13:47:07.009Z,8.10
2022-12-24T13:49:43.966Z,8.40
2022-12-24T13:52:16.474Z,6.90
2022-12-24T13:54:55.790Z,7.70
2022-12-24T13:57:36.867Z,7.20
2022-12-24T14:00:13.439Z,7.90
2022-12-24T14:02:47.755Z,7.60
2022-12-24T14:05:47.297Z,7.40
2022-12-24T14:08:35.928Z,8.50
2022-12-24T14:11:15.297Z,8.10
2022-12-24T14:13:42.427Z,8.60
2022-12-24T14:16:17.726Z,10.30
2022-12-24T14:18:49.021Z,11.40
2022-12-24T14:21:23.032Z,7.80
2022-12-24T14:26:23.785Z,7.60
2022-12-24T14:28:58.829Z,7.50
2022-12-24T14:31:26.103Z,6.70
2022-12-24T14:33:56.105Z,7.30
2022-12-24T14:36:23.753Z,8.70
2022-12-24T14:38:50.900Z,9.20
2022-12-24T14:41:36.078Z,10.60
2022-12-24T14:44:05.781Z,8.00
2022-12-24T14:46:55.152Z,7.50
2022-12-24T14:49:31.929Z,7.10
2022-12-24T14:55:40.305Z,7.00
2022-12-24T14:58:25.885Z,6.90
2022-12-24T15:00:55.600Z,7.20
2022-12-24T15:03:25.069Z,7.60
2022-12-24T15:05:54.425Z,8.40
2022-12-24T15:08:26.597Z,7.50
2022-12-24T15:10:55.054Z,8.60
2022-12-24T15:13:26.612Z,10.30
2022-12-24T15:15:54.452Z,9.50
2022-12-24T15:18:25.423Z,9.10
2022-12-24T15:20:57.201Z,10.30
2022-12-24T15:23:35.745Z,9.30
2022-12-24T15:26:17.023Z,9.70
2022-12-24T15:28:44.297Z,8.10
2022-12-24T15:31:30.605Z,9.30
2022-12-24T15:33:59.552Z,9.00
2022-12-24T15:36:35.189Z,9.30
2022-12-24T15:39:07.693Z,8.20
2022-12-24T15:42:03.900Z,16.90
2022-12-24T15:44:36.173Z,10.00
2022-12-24T15:47:05.876Z,9.90
2022-12-24T15:49:33.333Z,13.00
2022-12-24T15:52:05.932Z,16.60
2022-12-24T15:54:33.054Z,16.60
2022-12-24T15:57:00.145Z,17.80
2022-12-24T15:59:36.264Z,16.90
2022-12-24T16:02:41.101Z,20.60
2022-12-24T16:05:38.944Z,15.30
2022-12-24T16:08:14.774Z,19.10
2022-12-24T16:10:43.981Z,18.40
2022-12-24T16:13:21.158Z,15.10
2022-12-24T16:16:03.299Z,13.50
2022-12-24T16:18:42.496Z,11.90
2022-12-24T16:21:09.649Z,15.30
2022-12-24T16:23:46.698Z,14.10
2022-12-24T20:00:10.796Z,8.10
2022-12-24T20:02:40.933Z,6.80
2022-12-24T20:05:08.478Z,6.50
2022-12-24T20:07:37.014Z,7.40
2022-12-24T20:10:05.334Z,6.60
2022-12-24T20:12:33.816Z,7.20
2022-12-24T20:15:01.101Z,8.80
2022-12-24T20:17:28.742Z,7.00
2022-12-24T20:19:55.701Z,6.20
2022-12-24T20:22:22.736Z,6.60
2022-12-24T20:24:49.873Z,7.80
2022-12-24T20:27:17.643Z,6.60
2022-12-24T20:29:45.102Z,6.50
2022-12-24T20:32:12.303Z,6.80
2022-12-24T20:34:42.269Z,6.50
2022-12-24T20:37:09.313Z,6.50
2022-12-24T20:39:36.566Z,7.40
2022-12-24T20:42:04.543Z,6.80
2022-12-24T20:44:31.785Z,7.90
2022-12-24T20:46:58.938Z,6.90
2022-12-24T20:49:26.087Z,6.00
2022-12-24T20:51:53.241Z,6.50
2022-12-24T20:54:20.693Z,5.80
2022-12-24T20:56:57.530Z,6.30
2022-12-24T20:59:26.197Z,6.60
2022-12-24T21:01:53.490Z,6.30
2022-12-24T21:04:21.514Z,6.10
2022-12-24T21:06:48.984Z,5.70
2022-12-24T21:09:16.434Z,6.20
2022-12-24T21:11:49.440Z,6.20
2022-12-24T21:14:19.437Z,6.00
2022-12-24T21:16:46.595Z,6.00
2022-12-24T21:19:20.498Z,7.40
2022-12-24T21:21:47.546Z,6.00
2022-12-24T21:24:15.053Z,6.80
2022-12-24T21:26:42.420Z,6.20
2022-12-24T21:29:09.801Z,6.50
2022-12-24T21:31:37.167Z,4.70
2022-12-24T21:34:04.427Z,5.60
2022-12-24T21:36:31.765Z,6.80
2022-12-24T21:38:58.926Z,5.80
2022-12-24T21:41:26.892Z,6.60
2022-12-24T21:43:55.065Z,8.00
2022-12-24T21:46:24.504Z,6.50
2022-12-24T21:49:10.984Z,5.40
2022-12-24T21:51:39.354Z,6.20
2022-12-24T21:54:25.591Z,6.10
2022-12-24T21:57:13.279Z,5.00
2022-12-24T21:59:40.529Z,5.10
2022-12-24T22:02:11.490Z,5.30
2022-12-24T22:04:38.925Z,5.30
2022-12-24T22:07:25.340Z,6.10
2022-12-24T22:10:11.422Z,4.60
2022-12-24T22:12:38.987Z,5.80
2022-12-24T22:15:06.665Z,6.90
2022-12-24T22:17:34.416Z,5.50
2022-12-24T22:20:01.455Z,4.70
2022-12-24T22:22:28.721Z,4.50
